Time;durP1;ratioP1;P1;durP2;ratioP2;P2;SDS_P1;SDS_P2;PMS_P1;PMS_P2;Temp;Humidity;BMP_temperature;BMP_pressure;BME280_temperature;BME280_humidity;BME280_pressure;Samples;Min_cycle;Max_cycle;Signal;HPM_P1;HPM_P2
2021/05/24 00:01:12;;;;;;;7.15;4.15;;;14.10;55.40;;;;;;5047528;28;20051;-66
2021/05/24 00:03:38;;;;;;;9.77;3.92;;;14.10;55.30;;;;;;5052733;28;20072;-66
2021/05/24 00:06:06;;;;;;;8.07;3.80;;;14.10;55.20;;;;;;5047679;28;20028;-66
2021/05/24 00:08:32;;;;;;;9.15;3.60;;;14.10;55.20;;;;;;5046225;28;20036;-66
2021/05/24 00:10:57;;;;;;;6.25;3.58;;;14.10;55.10;;;;;;5052766;28;20032;-66
2021/05/24 00:13:25;;;;;;;12.32;3.63;;;14.10;55.10;;;;;;5047460;28;20048;-66
2021/05/24 00:15:57;;;;;;;8.90;3.88;;;14.10;55.10;;;;;;5050424;28;20077;-66
2021/05/24 00:18:27;;;;;;;8.40;3.03;;;14.10;55.10;;;;;;5052077;28;20394;-66
2021/05/24 00:20:59;;;;;;;10.05;3.95;;;14.20;55.10;;;;;;5050681;28;20037;-66
2021/05/24 00:23:24;;;;;;;5.75;3.13;;;14.20;55.00;;;;;;5055375;28;21054;-67
2021/05/24 00:25:55;;;;;;;9.13;3.33;;;14.20;55.10;;;;;;5049703;28;20119;-66
2021/05/24 00:28:23;;;;;;;6.25;3.00;;;14.20;55.00;;;;;;5047804;28;20041;-66
2021/05/24 00:30:50;;;;;;;8.90;2.95;;;14.20;55.00;;;;;;5055148;28;20040;-65
2021/05/24 00:33:17;;;;;;;9.07;3.35;;;14.20;55.00;;;;;;5048184;28;20097;-66
2021/05/24 00:35:46;;;;;;;4.05;2.78;;;14.20;54.90;;;;;;5053768;28;20143;-66
2021/05/24 00:38:13;;;;;;;6.10;2.85;;;14.30;55.00;;;;;;5052986;28;20115;-66
2021/05/24 00:40:39;;;;;;;8.75;3.30;;;14.30;55.00;;;;;;5053717;28;20040;-66
2021/05/24 00:43:06;;;;;;;6.93;2.90;;;14.30;55.00;;;;;;5051845;28;20037;-65
2021/05/24 00:45:35;;;;;;;9.82;3.20;;;14.30;54.90;;;;;;5056820;28;20049;-66
2021/05/24 00:48:01;;;;;;;5.03;2.70;;;14.30;54.80;;;;;;5050125;28;20029;-66
2021/05/24 00:50:27;;;;;;;11.35;2.67;;;14.30;54.80;;;;;;5048623;28;20040;-66
2021/05/24 00:52:55;;;;;;;9.95;2.85;;;14.40;54.70;;;;;;5051501;28;20055;-66
2021/05/24 00:55:21;;;;;;;5.75;2.70;;;14.40;54.70;;;;;;5051697;28;20547;-66
2021/05/24 00:57:48;;;;;;;5.72;2.90;;;14.40;54.60;;;;;;5049817;28;20116;-66
2021/05/24 01:00:21;;;;;;;8.02;2.50;;;14.40;54.50;;;;;;5055389;28;20036;-66
2021/05/24 01:02:51;;;;;;;7.68;2.30;;;14.40;54.50;;;;;;5050308;28;20086;-65
2021/05/24 01:05:19;;;;;;;8.70;2.55;;;14.40;54.50;;;;;;5049617;28;20056;-66
2021/05/24 01:07:44;;;;;;;5.28;2.35;;;14.40;54.40;;;;;;5052311;28;20041;-66
2021/05/24 01:10:14;;;;;;;4.22;2.53;;;14.40;54.30;;;;;;5047657;28;20041;-66
2021/05/24 01:12:44;;;;;;;6.70;2.78;;;14.40;54.20;;;;;;5060575;28;20032;-66
2021/05/24 01:15:13;;;;;;;8.75;2.40;;;14.50;54.30;;;;;;5047887;28;20105;-66
2021/05/24 01:17:39;;;;;;;5.00;2.35;;;14.50;54.30;;;;;;5054429;28;20135;-66
2021/05/24 01:20:07;;;;;;;6.60;2.15;;;14.50;54.20;;;;;;5049841;28;20036;-66
2021/05/24 01:22:34;;;;;;;4.15;2.30;;;14.50;54.20;;;;;;5052340;28;20410;-66
2021/05/24 01:25:00;;;;;;;6.10;2.70;;;14.50;54.20;;;;;;5046928;28;20741;-66
2021/05/24 01:27:28;;;;;;;7.13;2.65;;;14.50;54.10;;;;;;5050888;28;20041;-65
2021/05/24 01:29:56;;;;;;;4.55;2.72;;;14.50;54.10;;;;;;5055121;28;20043;-66
2021/05/24 01:32:21;;;;;;;5.93;2.40;;;14.50;54.20;;;;;;5050137;28;20052;-66
2021/05/24 01:34:49;;;;;;;7.63;3.22;;;14.60;54.00;;;;;;5051050;28;20033;-64
2021/05/24 01:37:15;;;;;;;9.07;2.40;;;14.60;54.00;;;;;;5041861;28;20130;-66
2021/05/24 01:39:40;;;;;;;7.05;2.63;;;14.60;54.00;;;;;;5049135;28;20525;-66
2021/05/24 01:42:06;;;;;;;4.45;2.35;;;14.60;54.10;;;;;;5047428;28;20168;-66
2021/05/24 01:44:37;;;;;;;7.30;2.75;;;14.70;54.10;;;;;;5046250;28;20064;-65
2021/05/24 01:47:08;;;;;;;5.03;2.90;;;14.70;54.00;;;;;;5050945;28;20040;-66
2021/05/24 01:49:39;;;;;;;3.33;2.03;;;14.70;54.00;;;;;;5057574;28;20046;-65
2021/05/24 01:52:14;;;;;;;5.78;2.38;;;14.70;53.80;;;;;;5067188;28;20071;-65
2021/05/24 01:54:41;;;;;;;6.88;2.80;;;14.80;53.80;;;;;;5058562;28;20091;-65
2021/05/24 01:57:07;;;;;;;2.75;2.20;;;14.80;53.90;;;;;;5046045;28;20037;-66
2021/05/24 01:59:33;;;;;;;4.82;2.30;;;14.80;53.80;;;;;;5059201;28;20603;-65
2021/05/24 02:02:02;;;;;;;4.90;2.60;;;14.90;53.90;;;;;;5053131;28;20048;-66
2021/05/24 02:04:30;;;;;;;5.75;2.50;;;14.90;53.80;;;;;;5052039;28;20052;-65
2021/05/24 02:06:58;;;;;;;7.78;2.38;;;14.90;53.70;;;;;;5052319;28;20032;-66
2021/05/24 02:09:27;;;;;;;3.80;2.13;;;14.90;53.70;;;;;;5053821;28;20040;-65
2021/05/24 02:12:00;;;;;;;6.82;2.53;;;15.00;53.60;;;;;;5056997;28;20041;-65
2021/05/24 02:14:35;;;;;;;7.28;2.25;;;15.00;53.60;;;;;;5055203;28;20051;-66
2021/05/24 02:17:01;;;;;;;4.90;2.50;;;15.00;53.50;;;;;;5055385;27;20516;-66
2021/05/24 02:19:31;;;;;;;7.20;2.35;;;15.10;53.40;;;;;;5051828;28;20032;-66
2021/05/24 02:21:56;;;;;;;5.30;2.53;;;15.10;53.30;;;;;;5055808;28;20040;-66
2021/05/24 02:24:24;;;;;;;4.07;2.30;;;15.10;53.30;;;;;;5050112;28;20040;-66
2021/05/24 02:26:50;;;;;;;8.32;2.22;;;15.10;53.30;;;;;;5056403;28;20040;-64
2021/05/24 02:29:15;;;;;;;8.73;2.40;;;15.20;53.30;;;;;;5052890;28;20036;-66
2021/05/24 02:31:41;;;;;;;3.90;2.13;;;15.20;53.30;;;;;;5050381;28;20044;-66
2021/05/24 02:34:09;;;;;;;8.35;2.22;;;15.20;53.20;;;;;;5054964;28;20762;-66
2021/05/24 02:36:35;;;;;;;3.95;2.55;;;15.20;53.10;;;;;;5052050;28;20041;-66
2021/05/24 02:39:05;;;;;;;6.60;2.08;;;15.20;53.00;;;;;;5052693;28;20052;-66
2021/05/24 02:41:31;;;;;;;5.43;2.33;;;15.20;53.10;;;;;;5052712;28;20028;-66
2021/05/24 02:43:59;;;;;;;3.53;1.98;;;15.20;53.00;;;;;;5057959;28;20040;-66
2021/05/24 02:46:25;;;;;;;6.15;2.53;;;15.20;53.00;;;;;;5046532;28;20064;-65
2021/05/24 02:48:52;;;;;;;7.68;1.98;;;15.20;52.90;;;;;;5048843;28;20127;-66
2021/05/24 02:51:18;;;;;;;9.38;2.00;;;15.20;53.00;;;;;;5054826;28;20033;-66
2021/05/24 02:53:43;;;;;;;3.95;2.20;;;15.20;52.80;;;;;;5058180;28;20043;-66
2021/05/24 02:56:09;;;;;;;4.80;2.30;;;15.20;52.80;;;;;;5059431;28;20032;-65
2021/05/24 02:58:37;;;;;;;4.10;2.15;;;15.20;52.70;;;;;;5045615;28;20056;-65
2021/05/24 03:01:02;;;;;;;4.72;2.05;;;15.20;52.60;;;;;;5047146;28;20043;-65
2021/05/24 03:03:30;;;;;;;3.55;1.80;;;15.20;52.50;;;;;;5051503;28;20036;-65
2021/05/24 03:05:56;;;;;;;9.60;1.88;;;15.20;52.50;;;;;;5053947;28;20124;-65
2021/05/24 03:08:21;;;;;;;3.80;1.75;;;15.20;52.60;;;;;;5051658;28;20029;-66
2021/05/24 03:10:49;;;;;;;6.05;2.10;;;15.20;52.50;;;;;;5054779;28;21133;-65
2021/05/24 03:13:17;;;;;;;1.90;1.65;;;15.20;52.40;;;;;;5056586;28;20526;-66
2021/05/24 03:15:43;;;;;;;4.97;1.63;;;15.20;52.40;;;;;;5053201;28;20119;-66
2021/05/24 03:18:08;;;;;;;9.02;2.42;;;15.20;52.30;;;;;;5051789;28;20116;-65
2021/05/24 03:20:36;;;;;;;5.45;1.90;;;15.20;52.30;;;;;;5059773;28;20040;-66
2021/05/24 03:23:04;;;;;;;9.00;1.77;;;15.20;52.10;;;;;;5059606;28;20037;-66
2021/05/24 03:25:30;;;;;;;5.18;1.73;;;15.30;52.10;;;;;;5055957;28;20090;-65
2021/05/24 03:27:56;;;;;;;5.78;1.83;;;15.30;51.90;;;;;;5053491;28;20921;-66
2021/05/24 03:30:26;;;;;;;3.95;1.58;;;15.30;52.00;;;;;;5055326;28;20055;-65
2021/05/24 03:32:52;;;;;;;4.57;1.77;;;15.30;52.00;;;;;;5046436;28;20041;-65
2021/05/24 03:35:17;;;;;;;7.97;1.85;;;15.30;51.70;;;;;;5053673;28;20097;-65
2021/05/24 03:37:43;;;;;;;8.05;1.92;;;15.30;51.80;;;;;;5053232;28;20032;-66
2021/05/24 03:40:11;;;;;;;5.00;1.98;;;15.30;51.90;;;;;;5060429;28;20035;-66
2021/05/24 03:42:37;;;;;;;3.88;1.73;;;15.40;51.90;;;;;;5054906;28;20119;-66
2021/05/24 03:45:07;;;;;;;2.92;1.73;;;15.40;51.80;;;;;;5055480;27;20048;-66
2021/05/24 03:47:38;;;;;;;3.20;1.73;;;15.40;51.70;;;;;;5051559;28;20530;-65
2021/05/24 03:50:09;;;;;;;2.17;1.33;;;15.40;51.80;;;;;;5057848;28;20047;-65
2021/05/24 03:52:37;;;;;;;5.03;2.08;;;15.40;51.60;;;;;;5069559;28;20057;-65
2021/05/24 03:55:06;;;;;;;5.63;1.85;;;15.40;51.60;;;;;;5052265;28;20042;-65
2021/05/24 03:57:34;;;;;;;3.72;1.75;;;15.40;51.60;;;;;;5054495;28;20053;-65
2021/05/24 04:00:00;;;;;;;3.88;1.83;;;15.40;51.70;;;;;;5041612;28;20514;-65
2021/05/24 04:02:26;;;;;;;3.50;1.35;;;15.50;51.60;;;;;;5052943;28;20064;-66
2021/05/24 04:04:51;;;;;;;1.48;1.27;;;15.50;51.50;;;;;;5045786;28;20036;-66
2021/05/24 04:07:27;;;;;;;3.00;1.80;;;15.50;51.40;;;;;;5050539;28;20047;-66
2021/05/24 04:09:57;;;;;;;4.65;1.55;;;15.50;51.30;;;;;;5039598;28;20040;-65
2021/05/24 04:12:25;;;;;;;1.70;1.30;;;15.60;51.20;;;;;;5053767;28;20064;-65
2021/05/24 04:14:54;;;;;;;4.05;1.60;;;15.60;51.00;;;;;;5049723;28;20044;-65
2021/05/24 04:17:22;;;;;;;3.25;1.40;;;15.60;51.10;;;;;;5050233;28;20048;-65
2021/05/24 04:19:49;;;;;;;2.95;1.50;;;15.70;51.10;;;;;;5056891;28;20036;-65
2021/05/24 04:22:17;;;;;;;7.38;1.73;;;15.70;50.90;;;;;;5051365;28;20052;-65
2021/05/24 04:24:44;;;;;;;3.45;1.40;;;15.70;50.90;;;;;;5051154;28;20127;-65
2021/05/24 04:27:13;;;;;;;6.32;1.60;;;15.70;50.90;;;;;;5049601;28;20076;-65
2021/05/24 04:29:41;;;;;;;4.70;1.33;;;15.80;51.00;;;;;;5053805;28;20029;-65
2021/05/24 04:32:06;;;;;;;1.67;1.33;;;15.80;50.80;;;;;;5051125;28;20039;-65
2021/05/24 04:34:34;;;;;;;3.65;1.48;;;15.80;50.70;;;;;;5056591;28;20032;-65
2021/05/24 04:37:02;;;;;;;1.95;1.10;;;15.90;50.70;;;;;;5051332;28;20044;-65
2021/05/24 04:39:28;;;;;;;6.22;1.35;;;15.90;50.60;;;;;;5052747;28;20097;-65
2021/05/24 04:41:55;;;;;;;2.92;1.40;;;16.00;50.50;;;;;;5046990;28;20555;-65
2021/05/24 04:44:28;;;;;;;2.05;1.10;;;16.00;50.40;;;;;;5054511;28;20070;-65
2021/05/24 04:46:56;;;;;;;4.90;1.38;;;16.10;50.50;;;;;;5049840;28;20529;-65
2021/05/24 04:49:23;;;;;;;5.03;1.30;;;16.10;50.30;;;;;;5050588;28;20537;-65
2021/05/24 04:51:54;;;;;;;5.50;1.48;;;16.20;50.30;;;;;;5062079;28;20130;-64
2021/05/24 04:54:24;;;;;;;6.57;1.30;;;16.20;50.40;;;;;;5061513;28;20521;-65
2021/05/24 04:56:50;;;;;;;3.92;1.23;;;16.20;50.20;;;;;;5059216;28;20165;-64
2021/05/24 04:59:18;;;;;;;5.07;1.10;;;16.30;50.10;;;;;;5072861;28;20062;-66
2021/05/24 05:01:47;;;;;;;2.10;1.10;;;16.30;50.10;;;;;;5055637;28;21609;-66
2021/05/24 05:04:16;;;;;;;5.68;1.52;;;16.30;50.00;;;;;;5055362;28;20049;-65
2021/05/24 05:06:42;;;;;;;2.97;1.30;;;16.30;50.00;;;;;;5063682;28;20048;-65
2021/05/24 05:09:08;;;;;;;6.40;1.50;;;16.30;49.80;;;;;;5056169;28;20047;-65
2021/05/24 05:11:36;;;;;;;2.20;1.33;;;16.40;49.80;;;;;;5064787;28;20032;-65
2021/05/24 05:14:04;;;;;;;5.18;1.27;;;16.40;49.90;;;;;;5058515;28;20694;-65
2021/05/24 05:16:29;;;;;;;4.20;1.42;;;16.40;49.90;;;;;;5054774;28;20045;-65
2021/05/24 05:18:57;;;;;;;4.90;1.20;;;16.50;49.80;;;;;;5062680;28;20640;-65
2021/05/24 05:21:23;;;;;;;5.88;1.20;;;16.50;49.70;;;;;;5059572;28;20518;-65
2021/05/24 05:23:51;;;;;;;2.90;1.30;;;16.50;49.70;;;;;;5061801;28;20037;-65
2021/05/24 05:26:17;;;;;;;2.60;1.17;;;16.60;49.60;;;;;;5054533;28;20577;-65
2021/05/24 05:28:42;;;;;;;6.18;1.30;;;16.70;49.60;;;;;;5048386;28;20064;-65
2021/05/24 05:31:13;;;;;;;2.35;1.05;;;16.70;49.60;;;;;;5048955;28;20036;-65
2021/05/24 05:33:39;;;;;;;3.35;1.17;;;16.80;49.60;;;;;;5053340;28;20068;-66
2021/05/24 05:36:07;;;;;;;4.57;1.00;;;16.80;49.50;;;;;;5046750;28;20119;-65
2021/05/24 05:38:33;;;;;;;2.95;1.42;;;16.90;49.60;;;;;;5051899;28;20032;-65
2021/05/24 05:41:00;;;;;;;2.17;1.30;;;17.00;49.50;;;;;;5055440;28;21292;-65
2021/05/24 05:43:28;;;;;;;2.58;0.85;;;17.10;49.20;;;;;;5053524;28;20033;-66
2021/05/24 05:45:56;;;;;;;2.53;1.10;;;17.10;49.10;;;;;;5062596;28;20052;-65
2021/05/24 05:48:26;;;;;;;7.65;1.00;;;17.20;49.50;;;;;;5055370;28;20037;-65
2021/05/24 05:50:51;;;;;;;4.38;0.80;;;17.30;49.00;;;;;;5059180;28;20464;-65
2021/05/24 05:53:19;;;;;;;4.47;1.15;;;17.50;48.80;;;;;;5066077;28;20032;-65
2021/05/24 05:55:45;;;;;;;2.08;1.00;;;17.70;48.20;;;;;;5063444;28;20047;-65
2021/05/24 05:58:11;;;;;;;4.53;1.48;;;17.80;48.60;;;;;;5061824;28;20025;-65
2021/05/24 06:00:37;;;;;;;3.75;1.10;;;17.90;47.70;;;;;;5058704;28;20092;-65
2021/05/24 06:03:04;;;;;;;4.72;0.93;;;17.80;47.70;;;;;;5051304;28;20405;-65
2021/05/24 06:05:31;;;;;;;4.72;1.02;;;17.80;47.70;;;;;;5056161;28;20048;-65
2021/05/24 06:08:02;;;;;;;2.63;1.20;;;17.80;47.70;;;;;;5054718;28;20423;-65
2021/05/24 06:10:27;;;;;;;1.13;1.00;;;17.90;48.60;;;;;;5056234;28;20029;-65
2021/05/24 06:12:53;;;;;;;3.70;1.10;;;18.30;48.00;;;;;;5053377;28;20044;-65
2021/05/24 06:15:21;;;;;;;1.85;0.73;;;19.50;47.60;;;;;;5052429;28;20125;-65
2021/05/24 06:17:48;;;;;;;5.10;1.20;;;21.30;45.40;;;;;;5053847;28;20047;-66
2021/05/24 06:20:14;;;;;;;3.03;0.95;;;23.00;42.00;;;;;;5050180;28;20726;-66
2021/05/24 06:22:42;;;;;;;2.88;0.95;;;24.60;39.10;;;;;;5053643;28;20182;-66
2021/05/24 06:25:10;;;;;;;1.38;0.80;;;25.90;36.20;;;;;;5060153;28;20110;-66
2021/05/24 06:27:36;;;;;;;3.13;0.77;;;27.00;34.00;;;;;;5057540;28;20052;-66
2021/05/24 06:30:06;;;;;;;3.38;1.10;;;26.70;32.40;;;;;;5052290;28;20052;-66
2021/05/24 06:32:32;;;;;;;2.72;0.88;;;26.10;33.80;;;;;;5048200;28;20448;-66
2021/05/24 06:34:57;;;;;;;2.25;1.30;;;26.00;33.40;;;;;;5035803;28;20064;-66
2021/05/24 06:37:23;;;;;;;4.10;0.90;;;26.00;33.40;;;;;;5044657;28;20036;-65
2021/05/24 06:39:51;;;;;;;2.95;0.82;;;25.60;33.50;;;;;;5053549;28;20029;-65
2021/05/24 06:42:17;;;;;;;1.02;0.52;;;25.10;34.00;;;;;;5057080;28;20044;-66
2021/05/24 06:44:46;;;;;;;3.95;0.90;;;24.70;34.20;;;;;;5045870;28;20036;-65
2021/05/24 06:47:14;;;;;;;1.98;1.02;;;24.20;35.10;;;;;;5049756;28;20700;-65
2021/05/24 06:49:39;;;;;;;2.88;0.70;;;23.90;35.70;;;;;;5048702;28;20047;-66
2021/05/24 06:52:05;;;;;;;3.42;1.10;;;23.60;36.10;;;;;;5041400;28;20036;-66
2021/05/24 06:54:34;;;;;;;5.40;0.90;;;23.40;36.80;;;;;;5042528;28;20041;-66
2021/05/24 06:57:06;;;;;;;1.60;0.80;;;23.10;37.20;;;;;;5044414;28;24554;-66
2021/05/24 06:59:31;;;;;;;2.38;0.80;;;22.90;37.10;;;;;;5047557;28;20151;-66
2021/05/24 07:01:58;;;;;;;3.78;1.00;;;22.70;38.00;;;;;;5044523;28;20124;-66
2021/05/24 07:04:24;;;;;;;2.60;1.05;;;22.50;38.40;;;;;;5048926;28;20044;-66
2021/05/24 07:06:50;;;;;;;1.27;0.65;;;22.40;39.20;;;;;;5041751;28;20044;-64
2021/05/24 07:09:15;;;;;;;1.95;0.93;;;22.20;39.40;;;;;;5043459;28;20036;-65
2021/05/24 07:11:44;;;;;;;1.83;1.10;;;22.40;39.80;;;;;;5043340;28;20044;-65
2021/05/24 07:14:09;;;;;;;2.67;0.90;;;23.10;38.80;;;;;;5036318;28;20098;-65
2021/05/24 07:16:37;;;;;;;2.92;0.90;;;24.10;36.90;;;;;;5048350;28;20044;-66
2021/05/24 07:19:03;;;;;;;3.00;0.63;;;25.30;35.20;;;;;;5049497;28;20661;-67
2021/05/24 07:21:31;;;;;;;2.70;0.70;;;26.70;34.00;;;;;;5049095;28;20155;-66
2021/05/24 07:23:57;;;;;;;2.22;0.82;;;28.20;32.10;;;;;;5043046;28;20075;-66
2021/05/24 07:26:22;;;;;;;4.05;0.85;;;29.40;29.90;;;;;;5049545;28;20049;-66
2021/05/24 07:28:48;;;;;;;2.05;0.52;;;30.10;28.70;;;;;;5047350;28;20045;-66
2021/05/24 07:31:14;;;;;;;1.48;0.60;;;;;;;;;;5057446;28;20090;-66
2021/05/24 07:33:43;;;;;;;1.65;0.70;;;;;;;;;;5039957;28;20032;-67
2021/05/24 07:36:09;;;;;;;2.33;0.75;;;;;;;;;;5040480;28;20075;-66
2021/05/24 07:38:35;;;;;;;1.40;0.60;;;;;;;;;;5041835;28;20045;-66
2021/05/24 07:41:00;;;;;;;3.47;0.73;;;30.90;28.40;;;;;;5039208;28;20048;-67
2021/05/24 07:43:26;;;;;;;2.83;0.80;;;;;;;;;;5045300;28;21873;-67
2021/05/24 07:45:55;;;;;;;1.90;0.90;;;34.00;24.90;;;;;;5044699;28;20453;-66
2021/05/24 07:48:21;;;;;;;3.90;0.80;;;;;;;;;;5043268;28;20110;-67
2021/05/24 07:50:47;;;;;;;1.25;0.82;;;;;;;;;;5048611;28;20025;-67
2021/05/24 07:53:12;;;;;;;2.92;0.90;;;;;;;;;;5044994;28;20430;-66
2021/05/24 07:55:41;;;;;;;1.40;0.80;;;;;;;;;;5046673;28;20131;-67
2021/05/24 07:58:07;;;;;;;3.95;0.68;;;;;;;;;;5042082;28;20033;-66
2021/05/24 08:00:33;;;;;;;2.25;0.65;;;;;;;;;;5052088;28;20044;-67
2021/05/24 08:03:01;;;;;;;1.77;0.60;;;;;;;;;;5044832;28;20032;-66
2021/05/24 08:05:27;;;;;;;3.67;0.70;;;;;;;;;;5044936;28;20336;-66
2021/05/24 08:07:53;;;;;;;3.05;0.73;;;;;;;;;;5050159;28;20045;-65
2021/05/24 08:10:21;;;;;;;1.85;0.60;;;34.20;24.40;;;;;;5047311;28;20748;-66
2021/05/24 08:12:49;;;;;;;2.85;0.50;;;31.30;26.40;;;;;;5044485;28;20067;-66
2021/05/24 08:15:19;;;;;;;3.80;0.82;;;30.70;26.30;;;;;;5045600;28;20132;-66
2021/05/24 08:17:45;;;;;;;1.73;0.90;;;30.20;26.90;;;;;;5041852;28;20564;-66
2021/05/24 08:20:12;;;;;;;3.50;0.82;;;29.90;27.20;;;;;;5045713;28;20368;-66
2021/05/24 08:22:38;;;;;;;1.73;0.70;;;29.40;27.80;;;;;;5050278;28;20044;-66
2021/05/24 08:25:05;;;;;;;23.70;1.70;;;28.90;28.00;;;;;;5048230;28;20044;-65
2021/05/24 08:27:36;;;;;;;1.83;0.60;;;28.20;28.50;;;;;;5049995;28;20067;-66
2021/05/24 08:30:07;;;;;;;1.75;0.80;;;27.60;29.10;;;;;;5050565;28;20056;-66
2021/05/24 08:32:32;;;;;;;2.30;0.90;;;27.00;29.60;;;;;;5051704;28;20043;-66
2021/05/24 08:34:58;;;;;;;3.50;0.75;;;26.80;30.00;;;;;;5049958;28;22427;-65
2021/05/24 08:37:24;;;;;;;2.78;0.82;;;26.60;30.20;;;;;;5054328;28;20454;-65
2021/05/24 08:39:50;;;;;;;5.97;0.75;;;26.50;30.80;;;;;;5052945;28;20226;-64
2021/05/24 08:42:20;;;;;;;2.60;0.60;;;26.30;31.20;;;;;;5050907;28;20043;-66
2021/05/24 08:44:48;;;;;;;1.92;0.60;;;26.10;31.00;;;;;;5053293;28;20036;-66
2021/05/24 08:47:18;;;;;;;1.70;0.68;;;26.10;31.70;;;;;;5050695;28;20041;-66
2021/05/24 08:49:44;;;;;;;1.02;0.70;;;26.30;32.00;;;;;;5055283;28;20036;-66
2021/05/24 08:52:14;;;;;;;2.78;0.70;;;26.50;31.20;;;;;;5050959;28;20115;-66
2021/05/24 08:54:40;;;;;;;3.42;0.90;;;26.70;31.10;;;;;;5055792;28;20368;-66
2021/05/24 08:57:08;;;;;;;2.47;0.70;;;27.10;31.10;;;;;;5054181;28;20123;-66
2021/05/24 08:59:36;;;;;;;1.63;0.88;;;27.70;31.20;;;;;;5052562;28;20037;-66
2021/05/24 09:02:05;;;;;;;2.72;0.80;;;28.20;30.60;;;;;;5050017;28;20041;-67
2021/05/24 09:04:43;;;;;;;1.52;0.50;;;28.50;29.90;;;;;;5052465;28;20292;-66
2021/05/24 09:07:11;;;;;;;2.42;0.80;;;28.70;28.90;;;;;;5052575;28;20650;-66
2021/05/24 09:09:38;;;;;;;1.05;0.75;;;28.90;28.70;;;;;;5056436;28;20032;-66
2021/05/24 09:12:16;;;;;;;5.55;0.80;;;29.20;29.30;;;;;;5053447;28;20142;-66
2021/05/24 09:14:41;;;;;;;2.95;0.73;;;29.50;28.50;;;;;;5055433;28;20037;-66
2021/05/24 09:17:07;;;;;;;3.30;0.90;;;29.70;28.10;;;;;;5049956;28;20036;-66
2021/05/24 09:19:36;;;;;;;0.68;0.45;;;29.70;28.20;;;;;;5048217;28;20051;-66
2021/05/24 09:22:07;;;;;;;1.92;0.70;;;29.70;27.90;;;;;;5051187;28;20047;-66
2021/05/24 09:24:37;;;;;;;1.27;0.55;;;29.60;28.30;;;;;;5053454;28;20044;-66
2021/05/24 09:27:04;;;;;;;2.95;0.40;;;29.30;28.10;;;;;;5049726;28;20040;-66
2021/05/24 09:29:44;;;;;;;6.20;0.80;;;29.30;28.10;;;;;;5050003;28;20041;-66
2021/05/24 09:32:13;;;;;;;2.72;0.68;;;29.30;27.40;;;;;;5042507;28;20384;-66
2021/05/24 09:34:46;;;;;;;1.80;0.68;;;29.00;28.70;;;;;;5047033;28;20383;-66
2021/05/24 09:37:27;;;;;;;3.85;0.70;;;28.60;28.10;;;;;;5036987;28;20075;-66
2021/05/24 09:39:55;;;;;;;5.18;0.63;;;28.10;28.10;;;;;;5041401;28;20546;-66
2021/05/24 09:42:26;;;;;;;5.85;0.75;;;27.90;29.20;;;;;;5047729;28;20048;-66
2021/05/24 09:44:56;;;;;;;3.88;0.80;;;28.10;29.50;;;;;;5042912;28;20245;-65
2021/05/24 09:47:37;;;;;;;3.10;0.55;;;28.40;28.50;;;;;;5037497;28;20066;-66
2021/05/24 09:50:10;;;;;;;3.03;0.80;;;28.50;28.40;;;;;;5039127;28;20037;-66
2021/05/24 09:52:38;;;;;;;6.82;0.70;;;29.30;27.90;;;;;;5041334;28;20041;-66
2021/05/24 09:55:29;;;;;;;3.13;0.70;;;29.90;26.70;;;;;;5043201;28;20106;-66
2021/05/24 09:58:01;;;;;;;1.73;0.50;;;30.10;26.30;;;;;;5040920;28;20041;-66
2021/05/24 10:00:39;;;;;;;4.60;0.90;;;29.80;26.40;;;;;;5044677;28;20433;-66
2021/05/24 10:03:07;;;;;;;3.88;0.77;;;29.60;26.50;;;;;;5037850;28;20033;-66
2021/05/24 10:05:44;;;;;;;4.75;0.75;;;29.30;27.20;;;;;;5043418;28;20149;-66
2021/05/24 10:08:13;;;;;;;3.58;0.73;;;29.80;26.90;;;;;;5041428;28;20119;-66
2021/05/24 10:10:41;;;;;;;2.28;0.65;;;30.20;25.50;;;;;;5047593;28;20485;-66
2021/05/24 10:13:07;;;;;;;2.85;0.60;;;30.30;25.60;;;;;;5038556;28;20060;-66
2021/05/24 10:15:39;;;;;;;3.95;0.70;;;30.60;25.10;;;;;;5040916;28;20198;-66
2021/05/24 10:18:07;;;;;;;3.42;0.60;;;30.50;24.60;;;;;;5041642;28;20045;-66
2021/05/24 10:20:34;;;;;;;3.22;0.70;;;29.90;24.50;;;;;;5041738;28;20036;-66
2021/05/24 10:23:04;;;;;;;2.80;0.70;;;29.20;25.10;;;;;;5041141;28;20445;-66
2021/05/24 10:25:32;;;;;;;3.17;0.85;;;28.50;26.60;;;;;;5043710;28;20040;-66
2021/05/24 10:28:03;;;;;;;5.82;0.70;;;28.10;26.60;;;;;;5041933;28;22274;-66
2021/05/24 10:30:36;;;;;;;1.75;0.70;;;27.90;26.50;;;;;;5042719;28;20093;-66
2021/05/24 10:33:05;;;;;;;1.80;0.45;;;27.70;26.40;;;;;;5045521;28;20500;-66
2021/05/24 10:35:35;;;;;;;2.95;0.70;;;27.50;26.70;;;;;;5049623;28;20478;-66
2021/05/24 10:38:20;;;;;;;1.25;0.50;;;27.20;27.60;;;;;;5049689;28;20036;-66
2021/05/24 10:40:48;;;;;;;2.65;1.00;;;26.80;27.60;;;;;;5043854;28;20155;-66
2021/05/24 10:43:16;;;;;;;1.70;0.60;;;26.40;28.00;;;;;;5041658;28;20294;-66
2021/05/24 10:45:44;;;;;;;2.17;0.52;;;25.90;28.20;;;;;;5045478;28;20614;-66
2021/05/24 10:48:19;;;;;;;4.20;0.80;;;25.60;28.60;;;;;;5038971;28;20064;-66
2021/05/24 10:51:10;;;;;;;3.40;0.75;;;25.20;28.80;;;;;;5040998;28;20044;-66
2021/05/24 10:53:47;;;;;;;3.03;0.80;;;24.90;29.30;;;;;;5040061;28;20036;-66
2021/05/24 10:56:20;;;;;;;2.05;0.60;;;24.50;29.70;;;;;;5043315;28;20469;-66
2021/05/24 10:58:48;;;;;;;2.55;0.50;;;24.40;30.00;;;;;;5037222;28;20680;-66
2021/05/24 11:01:19;;;;;;;5.45;0.57;;;24.20;30.00;;;;;;5035347;28;20044;-66
2021/05/24 11:04:10;;;;;;;2.70;0.55;;;24.00;30.60;;;;;;5040955;28;20045;-66
2021/05/24 11:06:38;;;;;;;1.33;0.70;;;23.90;30.20;;;;;;5039493;28;20178;-67
2021/05/24 11:09:07;;;;;;;3.45;0.75;;;23.80;30.50;;;;;;5037118;28;20117;-67
2021/05/24 11:11:35;;;;;;;1.98;0.40;;;23.70;31.30;;;;;;5053592;28;20441;-65
2021/05/24 11:14:06;;;;;;;5.93;0.88;;;23.60;31.30;;;;;;5043708;28;20131;-66
2021/05/24 11:16:37;;;;;;;4.35;0.68;;;23.50;31.20;;;;;;5035288;28;20043;-66
2021/05/24 11:19:04;;;;;;;2.85;0.60;;;23.50;31.10;;;;;;5050828;28;20115;-66
2021/05/24 11:21:32;;;;;;;3.10;0.65;;;23.40;30.90;;;;;;5035289;28;20045;-66
2021/05/24 11:24:20;;;;;;;5.82;1.00;;;23.30;31.80;;;;;;5035909;28;20482;-66
2021/05/24 11:26:46;;;;;;;1.38;0.45;;;23.30;32.20;;;;;;5043801;28;20064;-66
2021/05/24 11:29:19;;;;;;;3.30;0.52;;;23.20;32.00;;;;;;5043228;28;20403;-66
2021/05/24 11:31:56;;;;;;;2.47;0.52;;;23.10;31.90;;;;;;5027250;28;20457;-66
2021/05/24 11:34:36;;;;;;;1.85;0.57;;;23.10;32.80;;;;;;5032308;28;20036;-66
2021/05/24 11:37:07;;;;;;;1.65;0.75;;;23.00;32.70;;;;;;5027527;28;21423;-66
2021/05/24 11:39:42;;;;;;;2.40;0.60;;;23.00;32.40;;;;;;5028821;28;20485;-66
2021/05/24 11:42:11;;;;;;;4.10;0.70;;;23.00;32.40;;;;;;5046296;28;20063;-66
2021/05/24 11:44:43;;;;;;;2.13;0.70;;;22.90;32.60;;;;;;5039602;28;20059;-66
2021/05/24 11:47:14;;;;;;;3.63;0.68;;;22.90;32.90;;;;;;5027255;28;20047;-66
2021/05/24 11:49:44;;;;;;;4.03;0.70;;;23.00;32.50;;;;;;5026415;28;20089;-66
2021/05/24 11:52:16;;;;;;;3.15;0.75;;;23.00;33.20;;;;;;5027204;28;20313;-66
2021/05/24 11:54:45;;;;;;;1.48;0.65;;;23.00;34.60;;;;;;5031841;28;20044;-66
2021/05/24 11:57:11;;;;;;;3.58;0.77;;;23.00;34.00;;;;;;5035110;28;20049;-65
2021/05/24 11:59:38;;;;;;;6.20;1.02;;;23.00;33.50;;;;;;5040207;28;20037;-66
2021/05/24 12:02:05;;;;;;;4.20;0.85;;;22.90;33.30;;;;;;5038023;28;20094;-65
2021/05/24 12:04:45;;;;;;;2.25;0.70;;;22.90;33.90;;;;;;5042022;28;20448;-66
2021/05/24 12:07:13;;;;;;;4.97;0.50;;;22.80;33.40;;;;;;5044379;28;20443;-65
2021/05/24 12:09:42;;;;;;;6.03;0.77;;;22.80;34.50;;;;;;5042227;28;20044;-66
2021/05/24 12:12:13;;;;;;;1.00;0.45;;;22.70;33.70;;;;;;5042616;28;20040;-66
2021/05/24 12:14:46;;;;;;;1.75;0.60;;;22.70;34.30;;;;;;5050667;28;20058;-66
2021/05/24 12:17:35;;;;;;;3.55;0.70;;;22.60;34.40;;;;;;5041693;28;20160;-66
2021/05/24 12:20:06;;;;;;;1.65;0.63;;;22.60;36.00;;;;;;5043045;28;20043;-65
2021/05/24 12:22:39;;;;;;;2.80;0.70;;;22.50;35.90;;;;;;5045471;28;20578;-66
2021/05/24 12:25:09;;;;;;;1.27;0.70;;;22.50;35.90;;;;;;5041675;28;20455;-66
2021/05/24 12:27:34;;;;;;;5.50;0.85;;;22.50;35.20;;;;;;5050999;28;20138;-65
2021/05/24 12:30:06;;;;;;;3.25;0.80;;;22.40;34.70;;;;;;5047197;28;20040;-66
2021/05/24 12:33:01;;;;;;;1.98;0.75;;;22.40;34.60;;;;;;5050236;28;20083;-66
2021/05/24 12:35:31;;;;;;;3.45;0.70;;;22.40;34.00;;;;;;5044855;28;20139;-65
2021/05/24 12:38:15;;;;;;;1.80;0.57;;;22.50;33.70;;;;;;5049982;28;20771;-66
2021/05/24 12:40:40;;;;;;;3.95;0.68;;;22.40;33.90;;;;;;5043478;28;20122;-66
2021/05/24 12:43:06;;;;;;;3.05;0.70;;;22.40;33.60;;;;;;5046391;28;20493;-65
2021/05/24 12:45:32;;;;;;;3.53;0.52;;;22.50;34.80;;;;;;5061406;28;20086;-66
2021/05/24 12:48:12;;;;;;;3.70;0.90;;;22.50;35.20;;;;;;5057445;27;20118;-66
2021/05/24 12:50:41;;;;;;;1.98;0.82;;;22.50;34.40;;;;;;5046787;28;21107;-65
2021/05/24 12:53:12;;;;;;;2.58;0.90;;;22.60;33.90;;;;;;5045673;28;20043;-66
2021/05/24 12:55:38;;;;;;;2.78;0.68;;;22.70;34.30;;;;;;5043330;28;20490;-66
2021/05/24 12:58:17;;;;;;;3.10;0.70;;;22.70;35.60;;;;;;5044687;28;20052;-66